Time;durP1;ratioP1;P1;durP2;ratioP2;P2;SDS_P1;SDS_P2;PMS_P1;PMS_P2;Temp;Humidity;BMP_temperature;BMP_pressure;BME280_temperature;BME280_humidity;BME280_pressure;Samples;Min_cycle;Max_cycle;Signal;HPM_P1;HPM_P2
2023/10/06 00:00:35;;;;;;;21.27;5.18;;;;;;;;;;4994696;28;92460;-65
2023/10/06 00:03:05;;;;;;;18.75;4.97;;;;;;;;;;4993790;28;94980;-66
2023/10/06 00:05:33;;;;;;;13.48;5.03;;;;;;;;;;4993882;28;93373;-65
2023/10/06 00:07:59;;;;;;;13.15;4.30;;;;;;;;;;4994092;28;92481;-65
2023/10/06 00:10:28;;;;;;;25.52;5.47;;;;;;;;;;4996850;28;93347;-65
2023/10/06 00:12:58;;;;;;;12.80;4.72;;;;;;;;;;4993867;28;92530;-65
2023/10/06 00:15:43;;;;;;;11.27;4.93;;;;;;;;;;4993164;28;93134;-63
2023/10/06 00:18:16;;;;;;;11.35;4.32;;;;;;;;;;4991903;28;95799;-63
2023/10/06 00:20:49;;;;;;;16.95;5.22;;;;;;;;;;4990089;28;92691;-62
2023/10/06 00:23:22;;;;;;;14.82;5.15;;;;;;;;;;4990251;28;93314;-63
2023/10/06 00:25:54;;;;;;;13.05;4.97;;;;;;;;;;4990052;28;93497;-63
2023/10/06 00:28:32;;;;;;;15.25;5.03;;;;;;;;;;4993265;28;92437;-63
2023/10/06 00:31:07;;;;;;;16.52;4.97;;;;;;;;;;4993804;28;93147;-62
2023/10/06 00:33:38;;;;;;;15.20;5.22;;;;;;;;;;4996718;28;94439;-62
2023/10/06 00:36:14;;;;;;;14.82;5.28;;;;;;;;;;4994638;28;93189;-63
2023/10/06 00:38:50;;;;;;;16.60;5.65;;;;;;;;;;4991709;28;93476;-63
2023/10/06 00:41:19;;;;;;;9.38;5.40;;;;;;;;;;4993355;28;92395;-63
2023/10/06 00:43:46;;;;;;;13.40;5.88;;;;;;;;;;4987841;28;95141;-64
2023/10/06 00:46:13;;;;;;;19.20;5.45;;;;;;;;;;4993206;28;93499;-63
2023/10/06 00:48:41;;;;;;;15.05;4.80;;;;;;;;;;4993587;28;92516;-63
2023/10/06 00:51:19;;;;;;;12.80;4.78;;;;;;;;;;4992437;28;93123;-63
2023/10/06 00:53:46;;;;;;;20.05;5.53;;;;;;;;;;4993174;28;93062;-63
2023/10/06 01:16:34;;;;;;;11.13;4.57;;;;;;;;;;4986213;28;94785;-63
2023/10/06 01:19:47;;;;;;;13.50;4.93;;;;;;;;;;4993117;28;94531;-63
2023/10/06 01:21:56;;;;;;;20.98;5.60;;;;;;;;;;4991702;28;92479;-63
2023/10/06 01:24:27;;;;;;;;;;;;;;;;;;4995172;28;93128;-65
2023/10/06 01:27:00;;;;;;;17.65;5.43;;;;;;;;;;4993523;28;118314;-64
2023/10/06 01:29:30;;;;;;;20.77;5.00;;;;;;;;;;4991103;28;93125;-63
2023/10/06 01:31:57;;;;;;;14.55;5.20;;;;;;;;;;4992575;28;94186;-63
2023/10/06 01:34:27;;;;;;;22.35;4.63;;;;;;;;;;4992961;28;92568;-63
2023/10/06 01:36:53;;;;;;;15.50;4.68;;;;;;;;;;4993002;28;93342;-63
2023/10/06 01:39:22;;;;;;;12.43;4.60;;;;;;;;;;4990825;28;95832;-63
2023/10/06 01:41:49;;;;;;;15.25;4.82;;;;;;;;;;4988946;28;92472;-63
2023/10/06 01:44:15;;;;;;;7.55;4.10;;;;;;;;;;4992241;28;93152;-63
2023/10/06 01:46:43;;;;;;;17.05;4.53;;;;;;;;;;4995523;28;93975;-63
2023/10/06 01:49:14;;;;;;;10.35;4.50;;;;;;;;;;4992259;28;92571;-63
2023/10/06 01:51:42;;;;;;;14.75;5.47;;;;;;;;;;4992048;28;93474;-63
2023/10/06 01:54:18;;;;;;;19.33;4.72;;;;;;;;;;4992029;28;92578;-63
2023/10/06 01:56:46;;;;;;;13.00;5.05;;;;;;;;;;4993383;28;93140;-63
2023/10/06 01:59:14;;;;;;;14.05;4.50;;;;;;;;;;4992104;28;93407;-63
2023/10/06 02:01:41;;;;;;;15.85;5.03;;;;;;;;;;4991870;28;92801;-63
2023/10/06 02:04:14;;;;;;;14.15;4.95;;;;;;;;;;4989983;28;94966;-63
2023/10/06 02:06:51;;;;;;;12.77;5.10;;;;;;;;;;4995173;28;93404;-63
2023/10/06 02:09:20;;;;;;;10.68;5.13;;;;;;;;;;4993149;28;93101;-63
2023/10/06 02:11:49;;;;;;;19.13;6.25;;;;;;;;;;4995341;28;93425;-63
2023/10/06 02:14:18;;;;;;;15.43;5.72;;;;;;;;;;4995536;28;92573;-63
2023/10/06 02:16:45;;;;;;;17.02;4.90;;;;;;;;;;4996372;28;93111;-63
2023/10/06 02:19:21;;;;;;;11.85;4.90;;;;;;;;;;4995147;28;93414;-63
2023/10/06 02:21:51;;;;;;;15.80;5.75;;;;;;;;;;4995747;28;91982;-63
2023/10/06 02:24:17;;;;;;;20.15;5.72;;;;;;;;;;4995746;28;92422;-63
2023/10/06 02:26:44;;;;;;;15.88;5.13;;;;;;;;;;4994869;28;93443;-63
2023/10/06 02:29:22;;;;;;;15.00;5.72;;;;;;;;;;4997177;28;94866;-63
2023/10/06 02:31:52;;;;;;;14.65;5.13;;;;;;;;;;4994725;28;93403;-63
2023/10/06 02:34:26;;;;;;;18.60;5.95;;;;;;;;;;4995269;28;92544;-63
2023/10/06 02:36:54;;;;;;;13.93;5.68;;;;;;;;;;4991771;28;92961;-63
2023/10/06 02:39:21;;;;;;;18.67;5.88;;;;;;;;;;4991602;28;93462;-63
2023/10/06 02:41:47;;;;;;;15.68;5.68;;;;;;;;;;4994347;28;92580;-63
2023/10/06 02:44:22;;;;;;;15.70;6.22;;;;;;;;;;4994935;28;92548;-63
2023/10/06 02:46:51;;;;;;;14.68;6.10;;;;;;;;;;4996180;28;92748;-63
2023/10/06 02:49:24;;;;;;;21.27;6.60;;;;;;;;;;4995147;28;92566;-63
2023/10/06 02:51:51;;;;;;;23.08;6.15;;;;;;;;;;4997490;28;93091;-63
2023/10/06 02:56:46;;;;;;;22.20;6.07;;;;;;;;;;4994994;28;95644;-63
2023/10/06 02:59:23;;;;;;;17.98;6.10;;;;;;;;;;4995169;28;94484;-63
2023/10/06 03:02:06;;;;;;;20.23;6.05;;;;;;;;;;4995013;28;92551;-63
2023/10/06 03:04:36;;;;;;;21.95;6.15;;;;;;;;;;4995140;28;93124;-63
2023/10/06 03:07:05;;;;;;;18.73;6.47;;;;;;;;;;4994079;28;93423;-63
2023/10/06 03:09:37;;;;;;;13.93;5.47;;;;;;;;;;4993821;28;92583;-63
2023/10/06 03:12:15;;;;;;;20.45;6.55;;;;;;;;;;4995366;28;93186;-63
2023/10/06 03:14:42;;;;;;;19.00;6.05;;;;;;;;;;4996504;28;93377;-62
2023/10/06 03:17:09;;;;;;;17.20;6.30;;;;;;;;;;4995111;28;93126;-63
2023/10/06 03:19:40;;;;;;;19.45;6.55;;;;;;;;;;4991588;28;94841;-63
2023/10/06 03:22:13;;;;;;;19.45;6.20;;;;;;;;;;4994013;28;92640;-63
2023/10/06 03:24:51;;;;;;;16.17;6.63;;;;;;;;;;4993108;28;93155;-64
2023/10/06 03:27:18;;;;;;;14.40;5.82;;;;;;;;;;4994851;28;93345;-63
2023/10/06 03:29:55;;;;;;;20.08;6.30;;;;;;;;;;4994454;28;92454;-63
2023/10/06 03:32:38;;;;;;;20.08;6.60;;;;;;;;;;4994351;28;94290;-63
2023/10/06 03:35:22;;;;;;;16.00;6.50;;;;;;;;;;4992613;28;93583;-63
2023/10/06 03:38:08;;;;;;;17.98;5.88;;;;;;;;;;4997228;28;92180;-63
2023/10/06 03:41:24;;;;;;;16.63;6.07;;;;;;;;;;4991740;28;93481;-63
2023/10/06 03:43:34;;;;;;;16.05;6.18;;;;;;;;;;4989791;28;92649;-63
2023/10/06 03:46:00;;;;;;;15.93;6.40;;;;;;;;;;4989692;28;94957;-63
2023/10/06 03:48:29;;;;;;;17.55;5.90;;;;;;;;;;4993941;28;93576;-62
2023/10/06 03:50:56;;;;;;;17.70;6.10;;;;;;;;;;4991055;28;92715;-63
2023/10/06 03:53:29;;;;;;;13.05;5.47;;;;;;;;;;4993635;28;93049;-62
2023/10/06 03:55:57;;;;;;;13.75;6.10;;;;;;;;;;4990506;28;93408;-63
2023/10/06 03:58:29;;;;;;;19.45;7.07;;;;;;;;;;4993656;28;92617;-63
2023/10/06 04:01:07;;;;;;;13.63;6.13;;;;;;;;;;4993220;28;93210;-63
2023/10/06 04:03:33;;;;;;;12.80;5.60;;;;;;;;;;4991274;28;91637;-63
2023/10/06 04:06:03;;;;;;;11.77;5.65;;;;;;;;;;4994670;28;93495;-63
2023/10/06 04:08:29;;;;;;;21.67;7.05;;;;;;;;;;4993582;28;93377;-63
2023/10/06 04:10:59;;;;;;;16.15;5.93;;;;;;;;;;4989151;28;94849;-63
2023/10/06 04:13:25;;;;;;;17.55;5.57;;;;;;;;;;4990363;28;95727;-63
2023/10/06 04:15:52;;;;;;;12.65;6.00;;;;;;;;;;4993299;28;93554;-63
2023/10/06 04:18:21;;;;;;;10.77;5.35;;;;;;;;;;4993941;28;92593;-63
2023/10/06 04:20:49;;;;;;;15.23;5.65;;;;;;;;;;4996740;28;93935;-62
2023/10/06 04:23:17;;;;;;;20.73;5.68;;;;;;;;;;4994319;28;92596;-63
2023/10/06 04:25:44;;;;;;;16.02;5.65;;;;;;;;;;4993226;28;93003;-63
2023/10/06 04:28:13;;;;;;;15.07;5.82;;;;;;;;;;4992478;28;93053;-63
2023/10/06 04:30:44;;;;;;;13.20;5.55;;;;;;;;;;4993368;28;92538;-63
2023/10/06 04:33:11;;;;;;;16.75;5.03;;;;;;;;;;4993022;28;93081;-62
2023/10/06 04:35:47;;;;;;;17.00;5.72;;;;;;;;;;4991873;28;95795;-63
2023/10/06 04:38:14;;;;;;;19.52;5.63;;;;;;;;;;4993033;28;92540;-62
2023/10/06 04:40:43;;;;;;;15.75;5.32;;;;;;;;;;4993141;28;94223;-63
2023/10/06 04:43:09;;;;;;;17.17;5.38;;;;;;;;;;4995436;28;93206;-62
2023/10/06 04:45:38;;;;;;;20.45;5.78;;;;;;;;;;4992795;28;93227;-63
2023/10/06 04:48:07;;;;;;;19.38;4.97;;;;;;;;;;4991830;28;93470;-63
2023/10/06 04:50:34;;;;;;;24.08;5.18;;;;;;;;;;4993092;28;92439;-63
2023/10/06 04:53:01;;;;;;;13.20;5.00;;;;;;;;;;4993912;28;94215;-63
2023/10/06 04:55:31;;;;;;;14.55;5.00;;;;;;;;;;4993439;28;93471;-63
2023/10/06 04:57:57;;;;;;;21.63;5.40;;;;;;;;;;4989955;28;92420;-63
2023/10/06 05:00:27;;;;;;;15.50;5.30;;;;;;;;;;4991859;28;94844;-63
2023/10/06 05:02:53;;;;;;;14.63;5.40;;;;;;;;;;4993257;28;93437;-63
2023/10/06 05:05:23;;;;;;;14.23;4.55;;;;;;;;;;4996203;28;92577;-63
2023/10/06 05:07:53;;;;;;;14.95;5.55;;;;;;;;;;4992660;28;94403;-63
2023/10/06 05:10:25;;;;;;;14.68;5.03;;;;;;;;;;4993158;28;92735;-63
2023/10/06 05:12:52;;;;;;;17.00;5.13;;;;;;;;;;4992792;28;94129;-63
2023/10/06 05:15:26;;;;;;;19.10;5.50;;;;;;;;;;4992576;28;93304;-62
2023/10/06 05:17:55;;;;;;;15.65;5.80;;;;;;;;;;4993459;28;91945;-63
2023/10/06 05:20:23;;;;;;;10.73;5.10;;;;;;;;;;4992530;28;94356;-62
2023/10/06 05:22:50;;;;;;;21.60;5.65;;;;;;;;;;4993123;28;93363;-63
2023/10/06 05:25:19;;;;;;;22.92;6.40;;;;;;;;;;4990856;28;95058;-63
2023/10/06 05:27:47;;;;;;;13.27;5.00;;;;;;;;;;4995279;28;95545;-63
2023/10/06 05:30:13;;;;;;;17.73;5.65;;;;;;;;;;4991948;28;92603;-63
2023/10/06 05:32:42;;;;;;;15.30;5.20;;;;;;;;;;4992735;28;93254;-64
2023/10/06 05:35:14;;;;;;;19.08;6.75;;;;;;;;;;4992136;28;93584;-63
2023/10/06 05:37:43;;;;;;;18.60;5.65;;;;;;;;;;4993000;28;92721;-63
2023/10/06 05:40:16;;;;;;;13.55;5.55;;;;;;;;;;4997249;28;93236;-64
2023/10/06 05:42:43;;;;;;;14.13;5.35;;;;;;;;;;4992699;28;92621;-63
2023/10/06 05:45:15;;;;;;;13.10;5.93;;;;;;;;;;4995810;28;96203;-62
2023/10/06 05:47:42;;;;;;;25.67;5.80;;;;;;;;;;4995958;28;93097;-63
2023/10/06 05:50:09;;;;;;;12.10;5.35;;;;;;;;;;4996677;28;95788;-62
2023/10/06 05:52:38;;;;;;;21.00;5.50;;;;;;;;;;4996223;28;94296;-63
2023/10/06 05:55:09;;;;;;;19.23;5.80;;;;;;;;;;4996043;28;93644;-63
2023/10/06 05:57:39;;;;;;;12.20;5.80;;;;;;;;;;4996514;28;92463;-66
2023/10/06 06:00:06;;;;;;;15.05;5.70;;;;;;;;;;4995422;28;95246;-65
2023/10/06 06:02:37;;;;;;;11.88;5.78;;;;;;;;;;4992018;28;93410;-65
2023/10/06 06:05:04;;;;;;;14.52;6.03;;;;;;;;;;4992161;28;92449;-65
2023/10/06 06:07:34;;;;;;;15.75;5.65;;;;;;;;;;4993212;28;92665;-65
2023/10/06 06:10:04;;;;;;;22.20;5.07;;;;;;;;;;4994781;28;93351;-65
2023/10/06 06:12:30;;;;;;;17.87;5.53;;;;;;;;;;4998291;28;92387;-65
2023/10/06 06:14:56;;;;;;;12.20;4.90;;;;;;;;;;4993632;28;95683;-65
2023/10/06 06:17:23;;;;;;;17.08;6.15;;;;;;;;;;4995851;28;92478;-65
2023/10/06 06:19:49;;;;;;;17.50;5.38;;;;;;;;;;4994936;28;92854;-65
2023/10/06 06:22:19;;;;;;;18.65;5.63;;;;;;;;;;4995275;28;92581;-65
2023/10/06 06:24:47;;;;;;;24.27;5.90;;;;;;;;;;4994700;28;92535;-65
2023/10/06 06:27:14;;;;;;;16.20;5.40;;;;;;;;;;4995623;28;93166;-65
2023/10/06 06:29:40;;;;;;;25.20;7.38;;;;;;;;;;4994350;28;93592;-65
2023/10/06 06:32:11;;;;;;;12.40;5.03;;;;;;;;;;4999632;28;91874;-65
2023/10/06 06:34:38;;;;;;;18.05;5.97;;;;;;;;;;4995113;28;94990;-65
2023/10/06 06:37:05;;;;;;;15.88;6.07;;;;;;;;;;4995055;28;92731;-65
2023/10/06 06:39:33;;;;;;;20.13;6.65;;;;;;;;;;4993086;28;95142;-65
2023/10/06 06:42:00;;;;;;;18.48;5.85;;;;;;;;;;4994580;28;93407;-65
2023/10/06 06:44:26;;;;;;;15.90;5.40;;;;;;;;;;4994699;28;92394;-65
2023/10/06 06:46:52;;;;;;;12.52;5.50;;;;;;;;;;4995578;28;93821;-65
2023/10/06 06:49:19;;;;;;;16.20;5.72;;;;;;;;;;4994765;28;94708;-65
2023/10/06 06:51:47;;;;;;;14.07;5.22;;;;;;;;;;4994616;28;92548;-65
2023/10/06 06:54:13;;;;;;;17.10;5.45;;;;;;;;;;4998566;28;94232;-65
2023/10/06 06:56:40;;;;;;;15.20;5.28;;;;;;;;;;4995087;28;91731;-65
2023/10/06 06:59:07;;;;;;;15.15;5.65;;;;;;;;;;4995754;28;93530;-65
2023/10/06 07:01:34;;;;;;;16.88;5.43;;;;;;;;;;4990987;28;93400;-65
2023/10/06 07:04:00;;;;;;;14.82;5.15;;;;;;;;;;4993411;28;95012;-65
2023/10/06 07:06:28;;;;;;;15.15;5.30;;;;;;;;;;4994093;28;96726;-65
2023/10/06 07:08:54;;;;;;;15.75;5.10;;;;;;;;;;4995422;28;93243;-63
2023/10/06 07:11:21;;;;;;;14.88;5.50;;;;;;;;;;4994757;28;92721;-62
2023/10/06 07:13:47;;;;;;;15.40;4.75;;;;;;;;;;4994265;28;93133;-63
2023/10/06 07:16:14;;;;;;;20.40;5.35;;;;;;;;;;4998294;28;93413;-62
2023/10/06 07:18:41;;;;;;;21.83;5.25;;;;;;;;;;4994701;28;94164;-63
2023/10/06 07:21:10;;;;;;;21.90;5.72;;;;;;;;;;4995007;28;93398;-62
2023/10/06 07:23:40;;;;;;;10.55;4.78;;;;;;;;;;4990751;28;92467;-63
2023/10/06 07:26:13;;;;;;;10.98;4.68;;;;;;;;;;4993314;28;93136;-63
2023/10/06 07:28:40;;;;;;;15.60;5.03;;;;;;;;;;4989409;28;96032;-63
2023/10/06 07:31:10;;;;;;;17.02;4.90;;;;;;;;;;4994286;28;92615;-63
2023/10/06 07:33:37;;;;;;;;;;;;;;;;;;4991560;28;93115;-63
2023/10/06 07:36:12;;;;;;;10.40;4.78;;;;;;;;;;4994271;28;124442;-63
2023/10/06 07:38:38;;;;;;;12.10;3.92;;;;;;;;;;4993857;28;92357;-63
2023/10/06 07:41:05;;;;;;;14.20;5.57;;;;;;;;;;4993623;28;93434;-63
2023/10/06 07:43:31;;;;;;;11.13;4.38;;;;;;;;;;4993871;28;92560;-62
2023/10/06 07:46:07;;;;;;;7.95;4.13;;;;;;;;;;4994268;28;93135;-62
2023/10/06 07:48:36;;;;;;;14.95;4.93;;;;;;;;;;4993869;28;94488;-62
2023/10/06 07:51:03;;;;;;;17.52;4.22;;;;;;;;;;4994247;28;92571;-63
2023/10/06 07:53:29;;;;;;;12.23;4.32;;;;;;;;;;4992477;28;94962;-62
2023/10/06 07:56:06;;;;;;;19.02;5.00;;;;;;;;;;4994083;28;93444;-63
2023/10/06 07:58:38;;;;;;;9.32;4.22;;;;;;;;;;4994475;28;92586;-63
2023/10/06 08:01:07;;;;;;;14.52;4.10;;;;;;;;;;4996389;28;93050;-63
2023/10/06 08:03:38;;;;;;;11.97;4.33;;;;;;;;;;4993985;28;92568;-63
2023/10/06 08:06:05;;;;;;;12.30;4.10;;;;;;;;;;4992655;28;93249;-62
2023/10/06 08:08:35;;;;;;;13.88;4.15;;;;;;;;;;4993703;28;92429;-63
2023/10/06 08:11:05;;;;;;;20.67;4.80;;;;;;;;;;4994106;28;95937;-62
2023/10/06 08:13:36;;;;;;;19.85;4.65;;;;;;;;;;4992898;28;93512;-62
2023/10/06 08:16:03;;;;;;;15.88;4.70;;;;;;;;;;4993763;28;94517;-63
2023/10/06 08:18:30;;;;;;;13.13;4.22;;;;;;;;;;4991920;28;94856;-63
2023/10/06 08:20:56;;;;;;;16.75;4.18;;;;;;;;;;4995790;28;96079;-63
2023/10/06 08:23:23;;;;;;;14.88;4.45;;;;;;;;;;4994018;28;92456;-63
2023/10/06 08:25:52;;;;;;;15.73;5.32;;;;;;;;;;4993303;28;93258;-63
2023/10/06 08:28:26;;;;;;;15.93;3.97;;;;;;;;;;4992995;28;94440;-62
2023/10/06 08:30:53;;;;;;;14.15;3.85;;;;;;;;;;4994136;28;92398;-63
2023/10/06 08:33:20;;;;;;;19.25;4.35;;;;;;;;;;4993067;28;92585;-62
2023/10/06 08:35:54;;;;;;;11.15;4.55;;;;;;;;;;4993155;28;92614;-63
2023/10/06 08:38:21;;;;;;;11.60;3.90;;;;;;;;;;4992700;28;93108;-63
2023/10/06 08:40:49;;;;;;;16.20;4.05;;;;;;;;;;4992854;28;94211;-63
2023/10/06 08:43:17;;;;;;;17.27;4.88;;;;;;;;;;4994155;28;95856;-63
2023/10/06 08:45:44;;;;;;;18.02;4.95;;;;;;;;;;4993372;28;95496;-63
2023/10/06 08:48:11;;;;;;;10.80;3.95;;;;;;;;;;4993007;28;93694;-63
2023/10/06 08:50:41;;;;;;;18.08;5.03;;;;;;;;;;4988339;28;92494;-63
2023/10/06 08:53:10;;;;;;;12.13;4.15;;;;;;;;;;4992712;28;93384;-63
2023/10/06 08:55:40;;;;;;;18.30;4.55;;;;;;;;;;4992533;28;93429;-63
2023/10/06 08:58:07;;;;;;;7.82;4.07;;;;;;;;;;4992848;28;92548;-62
2023/10/06 09:00:35;;;;;;;17.25;4.65;;;;;;;;;;4993422;28;92935;-63
2023/10/06 09:03:07;;;;;;;14.55;4.43;;;;;;;;;;4992811;28;92866;-63
2023/10/06 09:05:39;;;;;;;13.00;4.63;;;;;;;;;;4995956;28;93003;-62
2023/10/06 09:08:07;;;;;;;15.43;4.57;;;;;;;;;;4990833;28;96407;-63
2023/10/06 09:10:37;;;;;;;13.85;4.38;;;;;;;;;;4992003;28;92395;-63
2023/10/06 09:13:07;;;;;;;17.13;4.70;;;;;;;;;;4992481;28;94483;-62
2023/10/06 09:15:36;;;;;;;10.65;3.83;;;;;;;;;;4992054;28;94428;-63
2023/10/06 09:18:18;;;;;;;16.67;4.57;;;;;;;;;;4992774;28;92915;-63
2023/10/06 09:20:45;;;;;;;13.70;4.45;;;;;;;;;;4988840;28;93220;-63
2023/10/06 09:23:13;;;;;;;20.00;4.30;;;;;;;;;;4989210;28;94498;-63
2023/10/06 09:25:41;;;;;;;16.55;5.50;;;;;;;;;;4989192;28;91950;-63
2023/10/06 09:28:13;;;;;;;15.02;4.47;;;;;;;;;;4995936;28;92588;-63
2023/10/06 09:30:49;;;;;;;14.38;3.97;;;;;;;;;;4994050;28;92536;-63
2023/10/06 09:33:17;;;;;;;13.80;3.90;;;;;;;;;;4988161;28;95361;-63
2023/10/06 09:35:43;;;;;;;12.90;5.03;;;;;;;;;;4992551;28;94373;-63
2023/10/06 09:38:17;;;;;;;14.30;4.40;;;;;;;;;;4990141;28;92603;-63
2023/10/06 09:40:44;;;;;;;11.25;4.20;;;;;;;;;;4988905;28;93180;-62
2023/10/06 09:43:17;;;;;;;15.88;4.75;;;;;;;;;;4988035;28;93447;-63
2023/10/06 09:45:50;;;;;;;15.23;4.65;;;;;;;;;;4989209;28;92339;-63
2023/10/06 09:48:22;;;;;;;8.98;4.35;;;;;;;;;;4992731;28;94586;-63
2023/10/06 09:50:50;;;;;;;;;;;;;;;;;;4996125;28;92825;-63
2023/10/06 09:53:19;;;;;;;13.73;4.35;;;;;;;;;;4993528;28;122735;-62
2023/10/06 09:55:49;;;;;;;15.50;3.90;;;;;;;;;;4992280;28;93351;-64
2023/10/06 09:58:17;;;;;;;13.73;4.10;;;;;;;;;;4987462;28;94908;-63
2023/10/06 10:00:44;;;;;;;15.95;4.50;;;;;;;;;;4988980;28;95280;-63
2023/10/06 10:03:13;;;;;;;12.63;4.38;;;;;;;;;;4991528;28;93925;-63
2023/10/06 10:05:41;;;;;;;10.63;4.17;;;;;;;;;;4992250;28;92614;-62
2023/10/06 10:08:08;;;;;;;17.45;5.10;;;;;;;;;;4992439;28;93144;-62
2023/10/06 10:10:36;;;;;;;15.05;4.40;;;;;;;;;;4991680;28;93911;-63
2023/10/06 10:13:12;;;;;;;21.17;4.35;;;;;;;;;;4995517;28;93086;-63
2023/10/06 10:15:50;;;;;;;12.07;4.72;;;;;;;;;;4992250;28;92614;-63
2023/10/06 10:18:23;;;;;;;14.18;4.05;;;;;;;;;;4991098;28;92724;-63
2023/10/06 10:20:50;;;;;;;13.18;4.05;;;;;;;;;;4988889;28;93562;-62
2023/10/06 10:23:16;;;;;;;14.93;3.60;;;;;;;;;;4990283;28;95772;-69
2023/10/06 10:25:44;;;;;;;19.60;4.15;;;;;;;;;;4988544;28;92455;-63
2023/10/06 10:28:14;;;;;;;12.75;4.47;;;;;;;;;;4991549;28;93147;-63
2023/10/06 10:30:47;;;;;;;16.67;4.22;;;;;;;;;;4993958;28;93382;-62
2023/10/06 10:33:19;;;;;;;11.98;4.05;;;;;;;;;;4998627;28;92418;-63
2023/10/06 10:36:24;;;;;;;16.88;4.22;;;;;;;;;;4991789;28;93684;-62
2023/10/06 10:39:09;;;;;;;10.70;4.05;;;;;;;;;;4972577;28;92500;-63
2023/10/06 10:41:38;;;;;;;14.65;4.20;;;;;;;;;;4973167;28;94201;-63
2023/10/06 10:44:06;;;;;;;21.77;4.43;;;;;;;;;;4985628;28;93480;-62
2023/10/06 10:46:56;;;;;;;17.13;4.00;;;;;;;;;;4991756;28;92387;-62
2023/10/06 10:49:23;;;;;;;16.75;4.43;;;;;;;;;;4993048;28;95442;-62
2023/10/06 10:51:53;;;;;;;16.02;4.05;;;;;;;;;;4995022;28;94063;-63
2023/10/06 10:54:45;;;;;;;14.20;3.28;;;;;;;;;;4995153;28;92510;-62
2023/10/06 10:57:21;;;;;;;21.25;4.05;;;;;;;;;;4997742;28;94453;-62
2023/10/06 11:00:12;;;;;;;8.73;3.67;;;;;;;;;;4991246;28;92493;-63
2023/10/06 11:03:00;;;;;;;11.85;3.38;;;;;;;;;;4993509;28;94139;-62
2023/10/06 11:05:27;;;;;;;12.25;3.70;;;;;;;;;;4991988;28;93595;-62
2023/10/06 11:07:57;;;;;;;17.45;3.78;;;;;;;;;;4994665;28;91864;-63
2023/10/06 11:10:29;;;;;;;13.25;3.60;;;;;;;;;;4995552;28;93430;-63
2023/10/06 11:13:15;;;;;;;18.33;3.92;;;;;;;;;;4995044;28;94872;-62
2023/10/06 11:15:42;;;;;;;13.85;3.95;;;;;;;;;;4993535;28;94881;-62
2023/10/06 11:18:09;;;;;;;13.32;3.88;;;;;;;;;;4994583;28;95549;-62
2023/10/06 11:20:36;;;;;;;17.65;4.35;;;;;;;;;;4997835;28;94375;-62
2023/10/06 11:23:03;;;;;;;22.38;4.00;;;;;;;;;;4994429;28;94135;-62
2023/10/06 11:25:32;;;;;;;13.38;3.90;;;;;;;;;;4993424;28;92436;-62
2023/10/06 11:28:08;;;;;;;13.63;3.85;;;;;;;;;;4994200;28;92673;-63
2023/10/06 11:30:38;;;;;;;8.43;3.55;;;;;;;;;;4992545;28;94131;-62
2023/10/06 11:33:09;;;;;;;10.15;3.63;;;;;;;;;;4995013;28;93489;-62
2023/10/06 11:35:37;;;;;;;11.52;3.88;;;;;;;;;;4994810;28;92646;-62
2023/10/06 11:38:07;;;;;;;14.85;4.15;;;;;;;;;;4993748;28;92433;-62
2023/10/06 11:40:35;;;;;;;14.15;3.67;;;;;;;;;;4991322;28;94992;-63
2023/10/06 11:43:12;;;;;;;21.55;4.00;;;;;;;;;;4996760;28;92463;-62
2023/10/06 11:45:41;;;;;;;19.02;4.43;;;;;;;;;;4993592;28;93297;-63
2023/10/06 11:48:28;;;;;;;16.00;3.95;;;;;;;;;;4994356;28;92454;-62
2023/10/06 11:51:08;;;;;;;10.70;3.38;;;;;;;;;;4991030;28;94258;-65
2023/10/06 11:53:36;;;;;;;18.20;4.22;;;;;;;;;;4993452;28;93626;-65
2023/10/06 11:56:13;;;;;;;14.80;3.67;;;;;;;;;;4994106;28;92914;-65
2023/10/06 11:58:41;;;;;;;10.15;3.70;;;;;;;;;;4994241;28;94289;-65
2023/10/06 12:01:32;;;;;;;14.75;4.05;;;;;;;;;;4993329;28;92402;-65
2023/10/06 12:04:30;;;;;;;15.27;4.15;;;;;;;;;;4987305;28;92347;-65
2023/10/06 12:06:58;;;;;;;13.88;3.58;;;;;;;;;;4992656;28;94940;-65
2023/10/06 12:09:29;;;;;;;13.55;3.83;;;;;;;;;;4993821;28;92530;-65
2023/10/06 12:11:59;;;;;;;12.35;4.18;;;;;;;;;;4993490;28;93187;-65
2023/10/06 12:14:25;;;;;;;;;;;;;;;;;;4993379;28;93674;-65
2023/10/06 12:16:54;;;;;;;10.82;3.70;;;;;;;;;;4994622;28;117715;-65
2023/10/06 12:19:23;;;;;;;11.27;4.18;;;;;;;;;;4990203;28;94267;-65
2023/10/06 12:21:50;;;;;;;18.55;3.63;;;;;;;;;;4993855;28;93186;-65
2023/10/06 12:24:17;;;;;;;12.98;3.47;;;;;;;;;;4993418;28;91773;-65
2023/10/06 12:26:46;;;;;;;15.43;3.60;;;;;;;;;;4994042;28;93472;-64
2023/10/06 12:29:19;;;;;;;14.52;3.50;;;;;;;;;;5000569;28;95448;-65
2023/10/06 12:31:46;;;;;;;25.63;5.15;;;;;;;;;;4991740;28;95091;-65
2023/10/06 12:34:15;;;;;;;16.80;4.18;;;;;;;;;;4992634;28;93410;-65
2023/10/06 12:36:47;;;;;;;12.73;4.30;;;;;;;;;;4993212;28;92899;-65
2023/10/06 12:39:16;;;;;;;10.77;3.83;;;;;;;;;;4992859;28;93289;-65
2023/10/06 12:41:46;;;;;;;12.83;3.50;;;;;;;;;;4992486;28;93388;-66
2023/10/06 12:44:13;;;;;;;16.73;4.10;;;;;;;;;;4993088;28;92668;-65
2023/10/06 12:46:40;;;;;;;10.90;3.53;;;;;;;;;;4994103;28;94427;-66
2023/10/06 12:49:06;;;;;;;9.95;3.85;;;;;;;;;;4996162;28;92825;-65
2023/10/06 12:51:34;;;;;;;18.38;5.93;;;;;;;;;;4993034;28;92359;-65
2023/10/06 12:54:00;;;;;;;15.95;4.82;;;;;;;;;;4992693;28;93360;-65
2023/10/06 12:56:28;;;;;;;14.80;4.20;;;;;;;;;;4991780;28;94803;-65
2023/10/06 12:58:54;;;;;;;13.77;3.90;;;;;;;;;;4993617;28;93944;-63
2023/10/06 13:01:21;;;;;;;13.35;3.97;;;;;;;;;;4993351;28;93719;-62
2023/10/06 13:03:47;;;;;;;9.88;3.97;;;;;;;;;;4993408;28;92520;-63
2023/10/06 13:06:15;;;;;;;11.50;3.80;;;;;;;;;;4992646;28;93373;-63
2023/10/06 13:08:42;;;;;;;19.85;4.63;;;;;;;;;;4993136;28;94383;-63
2023/10/06 13:11:10;;;;;;;12.70;4.03;;;;;;;;;;4995305;28;92537;-63
2023/10/06 13:13:36;;;;;;;12.20;3.88;;;;;;;;;;4991216;28;92656;-63
2023/10/06 13:16:08;;;;;;;11.00;3.35;;;;;;;;;;4992472;28;92550;-63
2023/10/06 13:18:36;;;;;;;11.77;3.72;;;;;;;;;;4992181;28;94262;-63
2023/10/06 13:21:07;;;;;;;12.25;3.65;;;;;;;;;;4990578;28;95863;-63
2023/10/06 13:23:35;;;;;;;11.93;4.40;;;;;;;;;;4992402;28;92634;-63
2023/10/06 13:26:02;;;;;;;12.48;3.72;;;;;;;;;;4992828;28;92922;-63
2023/10/06 13:28:28;;;;;;;12.73;3.45;;;;;;;;;;4992486;28;93423;-63
2023/10/06 13:30:54;;;;;;;17.83;7.70;;;;;;;;;;4992417;28;92665;-61
2023/10/06 13:33:21;;;;;;;9.32;4.82;;;;;;;;;;5000510;28;94013;-61
2023/10/06 13:35:47;;;;;;;51.03;27.65;;;;;;;;;;4992811;28;92586;-62
2023/10/06 13:38:16;;;;;;;61.10;33.63;;;;;;;;;;4992222;28;93295;-61
2023/10/06 13:40:44;;;;;;;58.13;36.78;;;;;;;;;;4991928;28;94441;-62
2023/10/06 13:43:12;;;;;;;45.20;27.17;;;;;;;;;;4991968;28;92544;-61
2023/10/06 13:45:42;;;;;;;48.05;30.92;;;;;;;;;;4990487;28;94830;-62
2023/10/06 13:48:11;;;;;;;67.97;42.10;;;;;;;;;;4991848;28;94479;-61
2023/10/06 13:50:39;;;;;;;51.13;36.83;;;;;;;;;;4991483;28;92427;-61
2023/10/06 13:53:05;;;;;;;69.50;37.47;;;;;;;;;;4991222;28;93132;-61
2023/10/06 13:55:32;;;;;;;64.97;46.40;;;;;;;;;;4994055;28;94660;-62
2023/10/06 13:58:01;;;;;;;60.95;34.13;;;;;;;;;;4992158;28;94769;-62
2023/10/06 14:00:35;;;;;;;;;;;;;;;;;;4992112;28;94533;-62
2023/10/06 14:03:07;;;;;;;90.82;49.28;;;;;;;;;;4992877;28;120808;-62
2023/10/06 14:05:41;;;;;;;97.18;58.17;;;;;;;;;;4993640;28;93685;-62
2023/10/06 14:08:08;;;;;;;86.72;51.47;;;;;;;;;;4994920;28;92830;-62
2023/10/06 14:10:37;;;;;;;83.45;55.40;;;;;;;;;;4993622;28;94969;-62
2023/10/06 14:15:49;;;;;;;115.60;76.63;;;;;;;;;;4995388;28;124099;-62
2023/10/06 14:18:16;;;;;;;113.13;68.38;;;;;;;;;;4996677;28;92637;-62
2023/10/06 14:20:45;;;;;;;142.23;84.60;;;;;;;;;;4994866;28;93678;-62
2023/10/06 14:23:12;;;;;;;102.03;63.30;;;;;;;;;;4994062;28;92929;-62
2023/10/06 14:25:39;;;;;;;119.68;71.72;;;;;;;;;;4995301;28;94104;-62
2023/10/06 14:28:09;;;;;;;98.25;62.78;;;;;;;;;;4994752;28;92484;-62
2023/10/06 14:30:36;;;;;;;141.20;89.35;;;;;;;;;;4994238;28;92869;-62
2023/10/06 14:35:45;;;;;;;133.57;90.10;;;;;;;;;;4991662;28;95769;-62
2023/10/06 14:46:28;;;;;;;306.80;196.98;;;;;;;;;;4992942;28;93292;-61
2023/10/06 14:48:54;;;;;;;378.63;230.43;;;;;;;;;;4991287;28;93377;-61
2023/10/06 14:51:21;;;;;;;336.23;206.35;;;;;;;;;;4994113;28;92502;-61
2023/10/06 14:53:47;;;;;;;346.33;205.77;;;;;;;;;;4994683;28;94404;-61
2023/10/06 14:56:14;;;;;;;285.73;155.70;;;;;;;;;;4993770;28;94396;-63
2023/10/06 14:58:44;;;;;;;255.48;153.75;;;;;;;;;;4994520;28;92440;-64
2023/10/06 15:01:12;;;;;;;243.48;141.70;;;;;;;;;;4995849;28;94880;-63
2023/10/06 15:03:40;;;;;;;192.55;106.60;;;;;;;;;;4993924;28;92652;-63
2023/10/06 15:06:10;;;;;;;244.33;117.50;;;;;;;;;;4993806;28;95097;-63
2023/10/06 15:08:36;;;;;;;133.60;62.87;;;;;;;;;;4993717;28;94065;-63
2023/10/06 15:11:03;;;;;;;116.53;48.65;;;;;;;;;;4994178;28;93327;-62
2023/10/06 15:13:36;;;;;;;35.92;15.68;;;;;;;;;;4993935;28;94397;-63
2023/10/06 15:16:07;;;;;;;26.63;10.98;;;;;;;;;;4991299;28;94471;-64
2023/10/06 15:18:34;;;;;;;10.27;4.32;;;;;;;;;;4994255;28;91671;-62
2023/10/06 15:21:02;;;;;;;13.45;4.45;;;;;;;;;;4995947;28;92525;-63